HELX  Luxor International Airport

Add Bookmark

Luxor, Egypt

Status IATA
Operational LXR
Latitude Longitude
25° 40' 15" N 32° 42' 23" E
25.671000 32.706600
Local (DST + 2) UTC (GMT + 2)
Aug 1, 2014 04:41 Aug 1, 2014 01:41
Sunrise-Sunset Local UTC
Begin Civil Twilight 05:49 02:49
Sunrise 06:14 03:14
Sunset 07:36 16:36
End Civil Twilight 08:01 17:01

Current Weather

METAR Observed VFR
HELX 010100Z 00000KT CAVOK 29/10 Q1006 NOSIG Fri, Aug 1, 2014 @ 01:00 UTC
(41 Minutes ago)
Visual Flight Rules

Decoded METAR

Wind Visibility Clouds Conditions
Calm 10 km or more
  • Clear skies
  • No significant weather
Temperatures Readings Precipitation
Current Temp 29°C (84°F)
Dewpoint 10°C (50°F)
Humidity 31%
Altimeter 29.7"Hg
Sea Level Pressure 1006mb
Field Elevation 288.71'
None Recorded

Forecast Weather

TAF
TAF HELX 312300Z 0100/0206 33008KT CAVOK
From To
Fri, Aug 1, 2014 @ 01:00 UTC Sat, Aug 2, 2014 @ 06:00 UTC
Wind Visibility Conditions
330° at 8 knots (15 kph) 10 km or more
  • No significant weather

24 Hour Weather History

Loading
-

24 Hour Weather Graphs

Loading
-

CheckWX.com is intended as a tool to help pilots better visualize weather data. It is not intended as a substitute for an official weather briefing obtained from a Flight Service Station. CheckWX.com does not meet the FAA requirements for an official pre-flight weather briefing. Therefore, it's important that pilots still call and obtain an official FSS pre-flight weather briefing.